Time;durP1;ratioP1;P1;durP2;ratioP2;P2;SDS_P1;SDS_P2;PMS_P1;PMS_P2;Temp;Humidity;BMP_temperature;BMP_pressure;BME280_temperature;BME280_humidity;BME280_pressure;Samples;Min_cycle;Max_cycle;Signal;HPM_P1;HPM_P2
2023/01/15 00:00:51;;;;;;;;;;;7.90;99.90;;;;;;5010534;28;20156;-73
2023/01/15 00:03:17;;;;;;;;;;;7.90;99.90;;;;;;5015226;28;20574;-74
2023/01/15 00:05:45;;;;;;;;;;;7.90;99.90;;;;;;5011345;28;19923;-72
2023/01/15 00:08:10;;;;;;;;;;;7.90;99.90;;;;;;5013466;28;19913;-74
2023/01/15 00:10:36;;;;;;;;;;;7.90;99.90;;;;;;5008594;28;20287;-74
2023/01/15 00:13:01;;;;;;;;;;;7.80;99.90;;;;;;5006898;28;19914;-74
2023/01/15 00:15:27;;;;;;;;;;;7.80;99.90;;;;;;5016005;28;19913;-72
2023/01/15 00:17:52;;;;;;;;;;;7.80;99.90;;;;;;5007900;28;19916;-73
2023/01/15 00:20:18;;;;;;;;;;;7.80;99.90;;;;;;5011638;28;19914;-73
2023/01/15 00:22:44;;;;;;;;;;;7.80;99.90;;;;;;5014910;28;19945;-73
2023/01/15 00:27:54;;;;;;;;;;;7.80;99.90;;;;;;4999253;28;19916;-72
2023/01/15 00:30:20;;;;;;;;;;;7.80;99.90;;;;;;5007178;28;19925;-73
2023/01/15 00:32:45;;;;;;;;;;;7.70;99.90;;;;;;5007506;28;19937;-74
2023/01/15 00:35:15;;;;;;;;;;;7.70;99.90;;;;;;5001159;28;20377;-73
2023/01/15 00:37:41;;;;;;;;;;;7.70;99.90;;;;;;5009698;28;19910;-74
2023/01/15 00:40:07;;;;;;;;;;;7.70;99.90;;;;;;5004447;28;19918;-72
2023/01/15 00:42:32;;;;;;;;;;;7.60;99.90;;;;;;5011731;28;20235;-73
2023/01/15 00:44:58;;;;;;;;;;;7.70;99.90;;;;;;5009494;28;20404;-73
2023/01/15 00:47:24;;;;;;;;;;;7.60;99.90;;;;;;5015418;28;19910;-74
2023/01/15 00:49:50;;;;;;;;;;;7.60;99.90;;;;;;5005159;28;19964;-72
2023/01/15 00:52:16;;;;;;;;;;;7.60;99.90;;;;;;5015400;28;20334;-73
2023/01/15 00:54:41;;;;;;;;;;;7.60;99.90;;;;;;5005593;28;19926;-73
2023/01/15 00:57:10;;;;;;;;;;;7.60;99.90;;;;;;5004157;28;19976;-72
2023/01/15 00:59:35;;;;;;;;;;;7.60;99.90;;;;;;5008172;28;20299;-72
2023/01/15 01:02:01;;;;;;;;;;;7.60;99.90;;;;;;5008271;28;20420;-74
2023/01/15 01:04:26;;;;;;;;;;;7.60;99.90;;;;;;5010629;28;19949;-74
2023/01/15 01:06:52;;;;;;;;;;;7.60;99.90;;;;;;5014169;28;19917;-74
2023/01/15 01:09:17;;;;;;;;;;;7.60;99.90;;;;;;5007850;28;19922;-73
2023/01/15 01:11:43;;;;;;;;;;;7.60;99.90;;;;;;5008290;28;20194;-74
2023/01/15 01:14:09;;;;;;;;;;;7.60;99.90;;;;;;5009714;28;19913;-73
2023/01/15 01:16:36;;;;;;;;;;;7.60;99.90;;;;;;5009224;28;19939;-74
2023/01/15 01:19:04;;;;;;;;;;;7.50;99.90;;;;;;5016456;28;19917;-74
2023/01/15 01:21:29;;;;;;;;;;;7.50;99.90;;;;;;5022827;28;19972;-74
2023/01/15 01:23:56;;;;;;;;;;;7.60;99.90;;;;;;5007628;28;19910;-74
2023/01/15 01:26:22;;;;;;;;;;;7.50;99.90;;;;;;5018695;28;20017;-73
2023/01/15 01:28:51;;;;;;;;;;;7.50;99.90;;;;;;5013894;28;19996;-73
2023/01/15 01:31:17;;;;;;;;;;;7.50;99.90;;;;;;5009347;28;19953;-71
2023/01/15 01:33:42;;;;;;;;;;;7.50;99.90;;;;;;5008641;28;19948;-71
2023/01/15 01:36:08;;;;;;;;;;;7.50;99.90;;;;;;5016203;28;20274;-71
2023/01/15 01:38:34;;;;;;;;;;;7.50;99.90;;;;;;5009197;28;19917;-75
2023/01/15 01:40:59;;;;;;;;;;;7.50;99.90;;;;;;5011138;28;19917;-72
2023/01/15 01:43:26;;;;;;;;;;;7.50;99.90;;;;;;5011837;28;19952;-72
2023/01/15 01:45:51;;;;;;;;;;;7.50;99.90;;;;;;5007638;28;20235;-73
2023/01/15 01:48:20;;;;;;;;;;;7.50;99.90;;;;;;5009243;28;19984;-73
2023/01/15 01:50:46;;;;;;;;;;;7.50;99.90;;;;;;5008532;28;19981;-73
2023/01/15 01:53:15;;;;;;;;;;;7.50;99.90;;;;;;5019308;28;20144;-72
2023/01/15 01:55:41;;;;;;;;;;;7.40;99.90;;;;;;5019877;28;19909;-74
2023/01/15 01:58:08;;;;;;;;;;;7.50;99.90;;;;;;5017970;28;20092;-73
2023/01/15 02:00:34;;;;;;;;;;;7.50;99.90;;;;;;5016729;28;19924;-72
2023/01/15 02:03:01;;;;;;;;;;;7.40;99.90;;;;;;5008446;28;19917;-71
2023/01/15 02:05:30;;;;;;;;;;;7.40;99.90;;;;;;5013366;28;19924;-71
2023/01/15 02:07:55;;;;;;;;;;;7.40;99.90;;;;;;5004608;28;19909;-71
2023/01/15 02:10:21;;;;;;;;;;;7.40;99.90;;;;;;5002596;28;19918;-73
2023/01/15 02:12:52;;;;;;;;;;;7.40;99.90;;;;;;5007241;28;19917;-72
2023/01/15 02:15:22;;;;;;;;;;;7.40;99.90;;;;;;5005221;28;19972;-73
2023/01/15 02:17:52;;;;;;;;;;;7.40;99.90;;;;;;5015975;28;20362;-73
2023/01/15 02:20:38;;;;;;;;;;;7.40;99.90;;;;;;5009802;28;19913;-73
2023/01/15 02:23:19;;;;;;;;;;;7.40;99.90;;;;;;5002047;28;19910;-71
2023/01/15 02:25:56;;;;;;;;;;;7.30;99.90;;;;;;5002300;28;20154;-74
2023/01/15 02:28:25;;;;;;;;;;;7.40;99.90;;;;;;5014540;28;19935;-73
2023/01/15 02:30:54;;;;;;;;;;;7.30;99.90;;;;;;5012817;28;19914;-72
2023/01/15 02:33:26;;;;;;;;;;;7.30;99.90;;;;;;5009162;28;19921;-70
2023/01/15 02:35:56;;;;;;;;;;;7.30;99.90;;;;;;5024329;28;20379;-72
2023/01/15 02:38:23;;;;;;;;;;;7.30;99.90;;;;;;5005756;28;19918;-74
2023/01/15 02:40:51;;;;;;;;;;;7.30;99.90;;;;;;5010275;28;20137;-73
2023/01/15 02:43:18;;;;;;;;;;;7.30;99.90;;;;;;5001036;28;20220;-72
2023/01/15 02:45:45;;;;;;;;;;;7.30;99.90;;;;;;5011572;28;20126;-72
2023/01/15 02:48:12;;;;;;;;;;;7.30;99.90;;;;;;5024339;28;19949;-71
2023/01/15 02:50:40;;;;;;;;;;;7.30;99.90;;;;;;5027198;28;19921;-72
2023/01/15 02:53:10;;;;;;;;;;;7.30;99.90;;;;;;5029480;28;19913;-72
2023/01/15 02:55:38;;;;;;;;;;;7.30;99.90;;;;;;5024048;28;19920;-72
2023/01/15 02:58:05;;;;;;;;;;;7.30;99.90;;;;;;5022820;28;20197;-73
2023/01/15 03:00:34;;;;;;;;;;;7.30;99.90;;;;;;5016167;28;20367;-73
2023/01/15 03:03:08;;;;;;;;;;;7.30;99.90;;;;;;5011437;28;19943;-71
2023/01/15 03:05:53;;;;;;;;;;;7.30;99.90;;;;;;5017599;28;19921;-72
2023/01/15 03:08:18;;;;;;;;;;;7.30;99.90;;;;;;5022506;28;19917;-73
2023/01/15 03:10:50;;;;;;;;;;;7.30;99.90;;;;;;5021494;28;19994;-71
2023/01/15 03:13:18;;;;;;;;;;;7.30;99.90;;;;;;5028509;28;19920;-72
2023/01/15 03:18:36;;;;;;;;;;;7.30;99.90;;;;;;5007222;28;19920;-72
2023/01/15 03:21:04;;;;;;;;;;;7.40;99.90;;;;;;5005101;28;19914;-72
2023/01/15 03:23:30;;;;;;;;;;;7.30;99.90;;;;;;5006390;28;20314;-73
2023/01/15 03:25:56;;;;;;;;;;;7.30;99.90;;;;;;5003288;28;20346;-71
2023/01/15 03:28:25;;;;;;;;;;;7.30;99.90;;;;;;5009883;28;19909;-71
2023/01/15 03:30:51;;;;;;;;;;;7.30;99.90;;;;;;5013773;28;19914;-72
2023/01/15 03:33:17;;;;;;;;;;;7.30;99.90;;;;;;5008209;28;19910;-71
2023/01/15 03:35:49;;;;;;;;;;;7.30;99.90;;;;;;5019398;28;19910;-72
2023/01/15 03:38:16;;;;;;;;;;;7.20;99.90;;;;;;5019108;28;19920;-75
2023/01/15 03:41:05;;;;;;;;;;;7.20;99.90;;;;;;5014237;28;19917;-76
2023/01/15 03:43:49;;;;;;;;;;;7.20;99.90;;;;;;5015801;28;20037;-77
2023/01/15 03:46:21;;;;;;;;;;;7.20;99.90;;;;;;5018195;28;19944;-74
2023/01/15 03:48:54;;;;;;;;;;;7.20;99.90;;;;;;5011673;28;19989;-76
2023/01/15 03:51:22;;;;;;;;;;;7.20;99.90;;;;;;5005166;28;20274;-76
2023/01/15 03:53:50;;;;;;;;;;;7.20;99.90;;;;;;5004940;28;19913;-75
2023/01/15 03:56:16;;;;;;;;;;;7.20;99.90;;;;;;5001625;28;19916;-75
2023/01/15 03:58:47;;;;;;;;;;;7.30;99.90;;;;;;5004398;28;19913;-73
2023/01/15 04:01:15;;;;;;;;;;;7.20;99.90;;;;;;5003288;28;20145;-75
2023/01/15 04:03:41;;;;;;;;;;;7.20;99.90;;;;;;5012235;28;19992;-75
2023/01/15 04:06:07;;;;;;;;;;;7.20;99.90;;;;;;5004697;28;19917;-75
2023/01/15 04:08:37;;;;;;;;;;;7.20;99.90;;;;;;5004028;28;19991;-74
2023/01/15 04:11:02;;;;;;;;;;;7.20;99.90;;;;;;5009111;28;20609;-75
2023/01/15 04:13:28;;;;;;;;;;;7.20;99.90;;;;;;5014053;28;20007;-76
2023/01/15 04:15:54;;;;;;;;;;;7.10;99.90;;;;;;5009881;28;19976;-74
2023/01/15 04:18:19;;;;;;;;;;;7.10;99.90;;;;;;5011379;28;19967;-75
2023/01/15 04:20:45;;;;;;;;;;;7.20;99.90;;;;;;5005738;28;20004;-75
2023/01/15 04:23:11;;;;;;;;;;;7.10;99.90;;;;;;5010672;28;19913;-77
2023/01/15 04:25:37;;;;;;;;;;;7.10;99.90;;;;;;5002656;28;19910;-76
2023/01/15 04:28:02;;;;;;;;;;;7.10;99.90;;;;;;5011280;28;20720;-74
2023/01/15 04:30:28;;;;;;;;;;;7.10;99.90;;;;;;5003773;28;19968;-74
2023/01/15 04:32:53;;;;;;;;;;;7.10;99.90;;;;;;5012689;28;19924;-74
2023/01/15 04:35:19;;;;;;;;;;;7.00;99.90;;;;;;4999617;28;20630;-76
2023/01/15 04:37:45;;;;;;;;;;;7.00;99.90;;;;;;5007065;28;19991;-75
2023/01/15 04:44:05;;;;;;;;;;;7.00;99.90;;;;;;5010810;28;19913;-74
2023/01/15 04:45:42;;;;;;;;;;;6.90;99.90;;;;;;5004311;28;19917;-77
2023/01/15 04:48:07;;;;;;;;;;;6.90;99.90;;;;;;5009550;28;19943;-75
2023/01/15 04:50:33;;;;;;;;;;;6.90;99.90;;;;;;5011627;28;19913;-75
2023/01/15 04:52:58;;;;;;;;;;;6.90;99.90;;;;;;5009676;28;19918;-73
2023/01/15 04:55:24;;;;;;;;;;;6.90;99.90;;;;;;5008181;28;19924;-75
2023/01/15 04:57:49;;;;;;;;;;;6.90;99.90;;;;;;5013437;28;19909;-76
2023/01/15 05:00:15;;;;;;;;;;;6.80;99.90;;;;;;5018903;28;20008;-75
2023/01/15 05:02:40;;;;;;;;;;;6.90;99.90;;;;;;5006133;28;19913;-76
2023/01/15 05:05:06;;;;;;;;;;;6.80;99.90;;;;;;5015411;28;20302;-76
2023/01/15 05:07:31;;;;;;;;;;;6.80;99.90;;;;;;4990521;28;19921;-75
2023/01/15 05:09:57;;;;;;;;;;;6.80;99.90;;;;;;5014944;28;20386;-74
2023/01/15 05:12:22;;;;;;;;;;;6.80;99.90;;;;;;5019944;28;20046;-74
2023/01/15 05:14:48;;;;;;;;;;;6.80;99.90;;;;;;5011795;28;19927;-73
2023/01/15 05:17:13;;;;;;;;;;;6.80;99.90;;;;;;5005978;28;19909;-75
2023/01/15 05:19:39;;;;;;;;;;;6.80;99.90;;;;;;5005319;28;19968;-74
2023/01/15 05:22:04;;;;;;;;;;;6.80;99.90;;;;;;5008481;28;19941;-75
2023/01/15 05:24:30;;;;;;;;;;;6.80;99.90;;;;;;5011694;28;20008;-74
2023/01/15 05:26:57;;;;;;;;;;;6.70;99.90;;;;;;5011245;28;20349;-74
2023/01/15 05:29:22;;;;;;;;;;;6.80;99.90;;;;;;5010136;28;19918;-75
2023/01/15 05:31:48;;;;;;;;;;;6.70;99.90;;;;;;5009563;28;20116;-74
2023/01/15 05:34:13;;;;;;;;;;;6.70;99.90;;;;;;5015441;28;19986;-75
2023/01/15 05:36:39;;;;;;;;;;;6.70;99.90;;;;;;5019825;28;19910;-74
2023/01/15 05:39:05;;;;;;;;;;;6.70;99.90;;;;;;5014567;28;20000;-76
2023/01/15 05:41:49;;;;;;;;;;;6.70;99.90;;;;;;5009560;28;19944;-73
2023/01/15 05:44:22;;;;;;;;;;;6.70;99.90;;;;;;5013684;28;20257;-73
2023/01/15 05:46:48;;;;;;;;;;;6.70;99.90;;;;;;5014437;28;20011;-78
2023/01/15 05:49:15;;;;;;;;;;;6.70;99.90;;;;;;5009043;28;19909;-75
2023/01/15 05:51:42;;;;;;;;;;;6.70;99.90;;;;;;5012552;28;19920;-75
2023/01/15 05:54:09;;;;;;;;;;;6.70;99.90;;;;;;5004833;28;19921;-74
2023/01/15 05:56:36;;;;;;;;;;;6.70;99.90;;;;;;5006019;28;19910;-74
2023/01/15 05:59:01;;;;;;;;;;;6.70;99.90;;;;;;5001990;28;19921;-73
2023/01/15 06:01:27;;;;;;;;;;;6.80;99.90;;;;;;5011365;28;19913;-76
2023/01/15 06:03:54;;;;;;;;;;;6.80;99.90;;;;;;5012896;28;19921;-74
2023/01/15 06:06:20;;;;;;;;;;;6.90;99.90;;;;;;5001460;28;19984;-74
2023/01/15 06:08:45;;;;;;;;;;;6.90;99.90;;;;;;5011172;28;19960;-74
2023/01/15 06:11:11;;;;;;;;;;;6.90;99.90;;;;;;5007727;28;19913;-74
2023/01/15 06:13:38;;;;;;;;;;;6.90;99.90;;;;;;5007401;28;19924;-74
2023/01/15 06:16:04;;;;;;;;;;;6.80;99.90;;;;;;5000472;28;19918;-75
2023/01/15 06:18:29;;;;;;;;;;;6.70;99.90;;;;;;5003314;28;20449;-74
2023/01/15 06:20:55;;;;;;;;;;;6.70;99.90;;;;;;5008659;28;20009;-76
2023/01/15 06:23:20;;;;;;;;;;;6.70;99.90;;;;;;5003580;28;19976;-74
2023/01/15 06:25:46;;;;;;;;;;;6.60;99.90;;;;;;4996622;28;19910;-74
2023/01/15 06:28:11;;;;;;;;;;;6.60;99.90;;;;;;5004757;28;20027;-76
2023/01/15 06:30:38;;;;;;;;;;;6.60;99.90;;;;;;5009837;28;19910;-74
2023/01/15 06:33:04;;;;;;;;;;;6.50;99.90;;;;;;5009969;28;19917;-77
2023/01/15 06:35:30;;;;;;;;;;;6.50;99.90;;;;;;5011276;28;19972;-77
2023/01/15 06:37:55;;;;;;;;;;;6.50;99.90;;;;;;5009981;28;19913;-74
2023/01/15 06:40:22;;;;;;;;;;;6.40;99.90;;;;;;5001958;28;19914;-75
2023/01/15 06:48:22;;;;;;;;;;;6.40;99.90;;;;;;5007416;28;20031;-75
2023/01/15 06:50:47;;;;;;;;;;;6.30;99.90;;;;;;5009615;28;20338;-77
2023/01/15 06:53:13;;;;;;;;;;;6.30;99.90;;;;;;5004026;28;19909;-77
2023/01/15 06:55:38;;;;;;;;;;;6.30;99.90;;;;;;5008721;28;19928;-76
2023/01/15 06:58:04;;;;;;;;;;;6.20;99.90;;;;;;5011258;28;19932;-75
2023/01/15 07:00:29;;;;;;;;;;;6.20;99.90;;;;;;5015307;28;19920;-76
2023/01/15 07:02:55;;;;;;;;;;;6.20;99.90;;;;;;4997845;28;20111;-76
2023/01/15 07:05:20;;;;;;;;;;;6.20;99.90;;;;;;5002692;28;19914;-73
2023/01/15 07:07:46;;;;;;;;;;;6.20;99.90;;;;;;5010338;28;19941;-77
2023/01/15 07:10:11;;;;;;;;;;;6.30;99.90;;;;;;5011347;28;19913;-76
2023/01/15 07:12:37;;;;;;;;;;;6.30;99.90;;;;;;5011801;28;19910;-74
2023/01/15 07:15:02;;;;;;;;;;;6.30;99.90;;;;;;5004348;28;19918;-76
2023/01/15 07:17:28;;;;;;;;;;;6.30;99.90;;;;;;5015709;28;19909;-73
2023/01/15 07:19:53;;;;;;;;;;;6.30;99.90;;;;;;5013488;28;19917;-75
2023/01/15 07:22:19;;;;;;;;;;;6.30;99.90;;;;;;5009044;28;19951;-76
2023/01/15 07:24:44;;;;;;;;;;;6.30;99.90;;;;;;5013129;28;19916;-76
2023/01/15 07:27:10;;;;;;;;;;;6.30;99.90;;;;;;5004539;28;19909;-76
2023/01/15 07:29:35;;;;;;;;;;;6.20;99.90;;;;;;5007608;28;19920;-75
2023/01/15 07:32:01;;;;;;;;;;;6.20;99.90;;;;;;5003095;28;19913;-75
2023/01/15 07:34:26;;;;;;;;;;;6.20;99.90;;;;;;5004187;28;19917;-76
2023/01/15 07:36:52;;;;;;;;;;;6.30;99.90;;;;;;5008988;28;19920;-74
2023/01/15 07:39:17;;;;;;;;;;;6.20;99.90;;;;;;5006566;28;20279;-74
2023/01/15 07:50:00;;;;;;;;;;;6.20;99.90;;;;;;5004269;28;19924;-77
2023/01/15 07:52:26;;;;;;;;;;;6.20;99.90;;;;;;5012115;28;19909;-75
2023/01/15 07:54:51;;;;;;;;;;;6.20;99.90;;;;;;5014882;28;20019;-73
2023/01/15 07:57:18;;;;;;;;;;;6.20;99.90;;;;;;5000945;28;20291;-76
2023/01/15 07:59:44;;;;;;;;;;;6.20;99.90;;;;;;5014859;28;19913;-73
2023/01/15 08:02:09;;;;;;;;;;;6.20;99.90;;;;;;5005050;28;19910;-76
2023/01/15 08:04:35;;;;;;;;;;;6.20;99.90;;;;;;5015401;28;19959;-77
2023/01/15 08:07:01;;;;;;;;;;;6.30;99.90;;;;;;5006700;28;19948;-74
2023/01/15 08:09:27;;;;;;;;;;;6.20;99.90;;;;;;5017694;28;20409;-75
2023/01/15 08:17:21;;;;;;;;;;;6.10;99.90;;;;;;5007258;28;20013;-75
2023/01/15 08:19:47;;;;;;;;;;;6.10;99.90;;;;;;5002193;28;20015;-75
2023/01/15 08:22:12;;;;;;;;;;;6.20;99.90;;;;;;4996502;28;19953;-75
2023/01/15 08:24:37;;;;;;;;;;;6.20;99.90;;;;;;5001416;28;19913;-74
2023/01/15 08:27:03;;;;;;;;;;;6.30;99.90;;;;;;5010948;28;19971;-76
2023/01/15 08:29:29;;;;;;;;;;;6.40;99.90;;;;;;5005963;28;20040;-76
2023/01/15 08:31:54;;;;;;;;;;;6.40;99.90;;;;;;5002418;28;20560;-73
2023/01/15 08:34:20;;;;;;;;;;;6.40;99.90;;;;;;4997510;28;19928;-77
2023/01/15 08:36:45;;;;;;;;;;;6.30;99.90;;;;;;5002043;28;19913;-75
2023/01/15 08:39:11;;;;;;;;;;;6.30;99.90;;;;;;5001859;28;19913;-77
2023/01/15 08:41:36;;;;;;;;;;;6.40;99.90;;;;;;4999321;28;20621;-77
2023/01/15 08:44:02;;;;;;;;;;;6.40;99.90;;;;;;5002638;28;19913;-75
2023/01/15 08:46:27;;;;;;;;;;;6.30;99.90;;;;;;5006967;28;19949;-75
2023/01/15 08:48:53;;;;;;;;;;;6.40;99.90;;;;;;5019777;28;20358;-76
2023/01/15 08:51:18;;;;;;;;;;;6.40;99.90;;;;;;5013065;28;20090;-75
2023/01/15 08:53:44;;;;;;;;;;;6.40;99.90;;;;;;5011228;28;19917;-74
2023/01/15 08:56:14;;;;;;;;;;;6.30;99.90;;;;;;5013266;28;20020;-79
2023/01/15 08:58:39;;;;;;;;;;;6.40;99.90;;;;;;5008425;28;20386;-74
2023/01/15 09:01:05;;;;;;;;;;;6.40;99.90;;;;;;5007808;28;19917;-76
2023/01/15 09:03:31;;;;;;;;;;;6.40;99.90;;;;;;5017834;28;19913;-74
2023/01/15 09:05:58;;;;;;;;;;;6.50;99.90;;;;;;5005565;28;19922;-78
2023/01/15 09:08:23;;;;;;;;;;;6.50;99.90;;;;;;5000735;28;20421;-74
2023/01/15 09:10:49;;;;;;;;;;;6.50;99.90;;;;;;5000721;28;19913;-75
2023/01/15 09:13:15;;;;;;;;;;;6.50;99.90;;;;;;5004434;28;19909;-75
2023/01/15 09:15:40;;;;;;;;;;;6.50;99.90;;;;;;4994238;28;19998;-75
2023/01/15 09:18:06;;;;;;;;;;;6.60;99.90;;;;;;5005423;28;19932;-72
2023/01/15 09:20:31;;;;;;;;;;;6.60;99.90;;;;;;5002053;28;19968;-73
2023/01/15 09:22:57;;;;;;;;;;;6.60;99.90;;;;;;5007413;28;19913;-79
2023/01/15 09:25:23;;;;;;;;;;;6.60;99.90;;;;;;5001770;28;20435;-76
2023/01/15 09:27:49;;;;;;;;;;;6.60;99.90;;;;;;5010529;28;19932;-74
2023/01/15 09:30:21;;;;;;;;;;;6.70;99.90;;;;;;5000568;28;19913;-74
2023/01/15 09:32:46;;;;;;;;;;;6.70;99.90;;;;;;4996399;28;20001;-74
2023/01/15 09:35:12;;;;;;;;;;;6.70;99.90;;;;;;5000151;28;20264;-76
2023/01/15 09:37:38;;;;;;;;;;;6.80;99.90;;;;;;4999034;28;20214;-75
2023/01/15 09:40:06;;;;;;;;;;;6.90;99.90;;;;;;5014955;28;19913;-75
2023/01/15 09:42:55;;;;;;;;;;;6.80;99.90;;;;;;5006115;28;19921;-75
2023/01/15 09:45:20;;;;;;;;;;;6.80;99.90;;;;;;4996424;28;19910;-79
2023/01/15 09:47:46;;;;;;;;;;;6.90;99.90;;;;;;5003581;28;20225;-75
2023/01/15 09:50:20;;;;;;;;;;;6.80;99.90;;;;;;5004254;28;20023;-76
2023/01/15 09:53:03;;;;;;;;;;;6.90;99.90;;;;;;4999284;28;19948;-74
2023/01/15 09:55:30;;;;;;;;;;;6.80;99.90;;;;;;5002281;28;20414;-74
2023/01/15 09:57:58;;;;;;;;;;;6.80;99.90;;;;;;5007356;28;19914;-76
2023/01/15 10:00:25;;;;;;;;;;;6.80;99.90;;;;;;5008572;28;19920;-76
2023/01/15 10:02:58;;;;;;;;;;;6.80;99.90;;;;;;5016095;28;19914;-75
2023/01/15 10:05:34;;;;;;;;;;;6.90;99.90;;;;;;4998618;28;19914;-75
2023/01/15 10:08:12;;;;;;;;;;;7.00;99.90;;;;;;5010273;28;19917;-77
2023/01/15 10:10:48;;;;;;;;;;;7.00;99.90;;;;;;5017658;28;19924;-76
2023/01/15 10:13:33;;;;;;;;;;;7.00;99.90;;;;;;5016869;28;19931;-78
2023/01/15 10:15:59;;;;;;;;;;;7.10;99.90;;;;;;5014559;28;19917;-78
2023/01/15 10:18:25;;;;;;;;;;;7.10;99.90;;;;;;5024043;28;19925;-79
2023/01/15 10:21:13;;;;;;;;;;;7.20;99.90;;;;;;5011921;28;19916;-74
2023/01/15 10:24:01;;;;;;;;;;;7.20;99.90;;;;;;5012676;28;19922;-76
2023/01/15 10:26:38;;;;;;;;;;;7.30;99.90;;;;;;5001649;28;20225;-76
2023/01/15 10:29:08;;;;;;;;;;;7.30;99.90;;;;;;5006256;28;19915;-76
2023/01/15 10:31:53;;;;;;;;;;;7.40;99.90;;;;;;5012739;28;19925;-75
2023/01/15 10:34:27;;;;;;;;;;;7.50;99.90;;;;;;5011853;28;20362;-75
2023/01/15 10:37:20;;;;;;;;;;;7.50;99.90;;;;;;5014564;28;19917;-75
2023/01/15 10:39:46;;;;;;;;;;;7.40;99.90;;;;;;4993073;28;20299;-78
2023/01/15 10:42:23;;;;;;;;;;;7.50;99.90;;;;;;5006375;28;20019;-74
2023/01/15 10:44:55;;;;;;;;;;;7.50;99.90;;;;;;5035616;28;19921;-76
2023/01/15 10:47:24;;;;;;;;;;;7.50;99.90;;;;;;5020378;28;19909;-73
2023/01/15 10:49:50;;;;;;;;;;;7.40;99.90;;;;;;5013782;28;19996;-79
2023/01/15 10:52:28;;;;;;;;;;;7.40;99.90;;;;;;5011786;28;20011;-77
2023/01/15 10:55:02;;;;;;;;;;;7.40;99.90;;;;;;5004614;28;20382;-74
2023/01/15 10:57:37;;;;;;;;;;;7.40;99.90;;;;;;5010876;28;20367;-74
2023/01/15 11:00:04;;;;;;;;;;;7.50;99.90;;;;;;5013376;28;19913;-74
2023/01/15 11:02:30;;;;;;;;;;;7.50;99.90;;;;;;5007651;28;19920;-72
2023/01/15 11:04:55;;;;;;;;;;;7.40;99.90;;;;;;5007180;28;20354;-74
2023/01/15 11:07:24;;;;;;;;;;;7.30;99.90;;;;;;4998004;28;19922;-74
2023/01/15 11:09:50;;;;;;;;;;;7.20;99.90;;;;;;5002944;28;19921;-73
2023/01/15 11:20:27;;;;;;;;;;;7.10;99.90;;;;;;4998919;28;19924;-73
2023/01/15 11:22:54;;;;;;;;;;;7.10;99.90;;;;;;5011235;28;19914;-73
2023/01/15 11:25:27;;;;;;;;;;;7.10;99.90;;;;;;5010461;28;19917;-72
2023/01/15 11:27:53;;;;;;;;;;;7.20;99.90;;;;;;5008593;28;19919;-73
2023/01/15 11:30:27;;;;;;;;;;;7.30;99.90;;;;;;5002289;28;19924;-73
2023/01/15 11:32:56;;;;;;;;;;;7.20;99.90;;;;;;5007841;28;19932;-72
2023/01/15 11:35:22;;;;;;;;;;;7.20;99.90;;;;;;5019471;28;19913;-72
2023/01/15 11:37:48;;;;;;;;;;;7.20;99.90;;;;;;5007420;28;19917;-73
2023/01/15 11:40:18;;;;;;;;;;;7.20;99.90;;;;;;5002456;28;20361;-73
2023/01/15 11:51:08;;;;;;;;;;;7.10;99.90;;;;;;5019179;28;20024;-72
2023/01/15 11:53:39;;;;;;;;;;;7.10;99.90;;;;;;5019888;28;19928;-72
2023/01/15 11:56:08;;;;;;;;;;;7.00;99.90;;;;;;5029898;28;19917;-73
2023/01/15 11:58:44;;;;;;;;;;;7.30;99.90;;;;;;5024216;28;19917;-73
2023/01/15 12:01:11;;;;;;;;;;;7.20;99.90;;;;;;5015051;28;19921;-72
2023/01/15 12:03:39;;;;;;;;;;;7.20;99.90;;;;;;5008180;28;19950;-72
2023/01/15 12:06:07;;;;;;;;;;;7.20;99.90;;;;;;5015585;28;20039;-72
2023/01/15 12:08:44;;;;;;;;;;;7.20;99.90;;;;;;5014243;28;19913;-72
2023/01/15 12:11:15;;;;;;;;;;;7.30;99.90;;;;;;5007876;28;19909;-72
2023/01/15 12:13:55;;;;;;;;;;;7.40;99.90;;;;;;5005838;28;19993;-72
2023/01/15 12:16:26;;;;;;;;;;;7.40;99.90;;;;;;5008681;28;19914;-72
2023/01/15 12:18:56;;;;;;;;;;;7.40;99.90;;;;;;5013267;28;19951;-73
2023/01/15 12:21:40;;;;;;;;;;;7.40;99.90;;;;;;5013786;28;19909;-73
2023/01/15 12:24:24;;;;;;;;;;;7.40;99.90;;;;;;5005682;28;20398;-73
2023/01/15 12:27:01;;;;;;;;;;;7.50;99.90;;;;;;5026002;28;20313;-74
2023/01/15 12:29:30;;;;;;;;;;;7.40;99.90;;;;;;5001156;28;19967;-73
2023/01/15 12:32:01;;;;;;;;;;;7.50;99.90;;;;;;5005598;28;19937;-72
2023/01/15 12:34:33;;;;;;;;;;;7.50;99.90;;;;;;5001177;28;19996;-72
2023/01/15 12:36:58;;;;;;;;;;;7.50;99.90;;;;;;5012319;28;19917;-73
2023/01/15 12:39:27;;;;;;;;;;;7.50;99.90;;;;;;5011822;28;19920;-73
2023/01/15 12:45:07;;;;;;;;;;;7.40;99.90;;;;;;5009413;28;20432;-74
2023/01/15 12:47:36;;;;;;;;;;;7.40;99.90;;;;;;4998814;28;19944;-73
2023/01/15 12:50:04;;;;;;;;;;;7.40;99.90;;;;;;5001080;28;20287;-74
2023/01/15 12:52:34;;;;;;;;;;;7.40;99.90;;;;;;4996363;28;19917;-72
2023/01/15 12:55:08;;;;;;;;;;;7.40;99.90;;;;;;4995426;28;19988;-73
2023/01/15 12:57:35;;;;;;;;;;;7.40;99.90;;;;;;5000165;28;19922;-75
2023/01/15 13:00:12;;;;;;;;;;;7.40;99.90;;;;;;4995915;28;20363;-77
2023/01/15 13:03:02;;;;;;;;;;;7.40;99.90;;;;;;5003239;28;19929;-74
2023/01/15 13:05:29;;;;;;;;;;;7.40;99.90;;;;;;5000980;28;19964;-75
2023/01/15 13:07:57;;;;;;;;;;;7.30;99.90;;;;;;4994251;28;19924;-75
2023/01/15 13:10:24;;;;;;;;;;;7.30;99.90;;;;;;5002277;28;20606;-74
2023/01/15 13:12:51;;;;;;;;;;;7.40;99.90;;;;;;5019958;28;19979;-76
2023/01/15 13:15:18;;;;;;;;;;;7.40;99.90;;;;;;5014195;28;20331;-76
2023/01/15 13:17:50;;;;;;;;;;;7.50;99.90;;;;;;5015227;28;20343;-75
2023/01/15 13:20:30;;;;;;;;;;;7.50;99.90;;;;;;5012691;28;19913;-75
2023/01/15 13:22:58;;;;;;;;;;;7.50;99.90;;;;;;5009456;28;19909;-75
2023/01/15 13:25:38;;;;;;;;;;;7.50;99.90;;;;;;5011490;28;19956;-75
2023/01/15 13:28:09;;;;;;;;;;;7.50;99.90;;;;;;5016140;28;20363;-74
2023/01/15 13:30:52;;;;;;;;;;;7.60;99.90;;;;;;5011778;28;19922;-74
2023/01/15 13:33:30;;;;;;;;;;;7.60;99.90;;;;;;5005532;28;19919;-73
2023/01/15 13:36:25;;;;;;;;;;;7.50;99.90;;;;;;5008285;28;19914;-76
2023/01/15 13:38:53;;;;;;;;;;;7.50;99.90;;;;;;4998626;28;19909;-75
2023/01/15 13:42:30;;;;;;;;;;;7.60;99.90;;;;;;5010185;28;19967;-74
2023/01/15 13:44:13;;;;;;;;;;;7.60;99.90;;;;;;5005588;28;19913;-74
2023/01/15 13:46:38;;;;;;;;;;;7.60;99.90;;;;;;5006869;28;20339;-75
2023/01/15 13:49:04;;;;;;;;;;;7.60;99.90;;;;;;5013712;28;19993;-78
2023/01/15 13:51:38;;;;;;;;;;;7.50;99.90;;;;;;5009566;28;20130;-74
2023/01/15 13:54:03;;;;;;;;;;;7.50;99.90;;;;;;5003794;28;19968;-74
2023/01/15 13:56:34;;;;;;;;;;;7.50;99.90;;;;;;5009547;28;19917;-73
2023/01/15 13:59:01;;;;;;;;;;;7.50;99.90;;;;;;5013368;28;19923;-73
2023/01/15 14:01:29;;;;;;;;;;;7.60;99.90;;;;;;5013911;28;20093;-74
2023/01/15 14:04:00;;;;;;;;;;;7.60;99.90;;;;;;5008084;28;19920;-75
2023/01/15 14:06:35;;;;;;;;;;;7.70;99.90;;;;;;5012145;28;20139;-74
2023/01/15 14:09:03;;;;;;;;;;;7.70;99.90;;;;;;5015414;28;19917;-76
2023/01/15 14:11:34;;;;;;;;;;;7.80;99.90;;;;;;5007453;28;19920;-74
2023/01/15 14:14:08;;;;;;;;;;;7.80;99.90;;;;;;5013859;28;20318;-75
2023/01/15 14:16:52;;;;;;;;;;;7.80;99.90;;;;;;5009858;28;19922;-79
2023/01/15 14:19:33;;;;;;;;;;;7.70;99.90;;;;;;5011949;28;19913;-77
2023/01/15 14:21:58;;;;;;;;;;;7.70;99.90;;;;;;4999638;28;20359;-74
2023/01/15 14:24:27;;;;;;;;;;;7.60;99.90;;;;;;4997975;28;19924;-75
2023/01/15 14:27:03;;;;;;;;;;;7.60;99.90;;;;;;5004661;28;19939;-75
2023/01/15 14:29:49;;;;;;;;;;;7.60;99.90;;;;;;5004962;28;19909;-74
2023/01/15 14:32:17;;;;;;;;;;;7.60;99.90;;;;;;5006850;28;20322;-75
2023/01/15 14:34:43;;;;;;;;;;;7.60;99.90;;;;;;5007514;28;20382;-75
2023/01/15 14:37:11;;;;;;;;;;;7.60;99.90;;;;;;5014600;28;19963;-76
2023/01/15 14:39:49;;;;;;;;;;;7.60;99.90;;;;;;5014476;28;20140;-75
2023/01/15 14:45:06;;;;;;;;;;;7.50;99.90;;;;;;5003595;28;19936;-76
2023/01/15 14:47:52;;;;;;;;;;;7.50;99.90;;;;;;5012178;28;19910;-75
2023/01/15 14:50:23;;;;;;;;;;;7.60;99.90;;;;;;5001192;28;19916;-74
2023/01/15 14:52:53;;;;;;;;;;;7.60;99.90;;;;;;5009514;28;19924;-73
2023/01/15 14:55:19;;;;;;;;;;;7.50;99.90;;;;;;5001958;28;20429;-74
2023/01/15 14:57:53;;;;;;;;;;;7.50;99.90;;;;;;5004000;28;19953;-74
2023/01/15 15:00:20;;;;;;;;;;;7.50;99.90;;;;;;5005855;28;19914;-75
2023/01/15 15:02:47;;;;;;;;;;;7.50;99.90;;;;;;5002656;28;20402;-74
2023/01/15 15:05:14;;;;;;;;;;;7.50;99.90;;;;;;5009087;28;19922;-74
2023/01/15 15:07:42;;;;;;;;;;;7.50;99.90;;;;;;5003578;28;19962;-74
2023/01/15 15:10:12;;;;;;;;;;;7.50;99.90;;;;;;4999287;28;19913;-77
2023/01/15 15:12:40;;;;;;;;;;;7.50;99.90;;;;;;5002530;28;20194;-73
2023/01/15 15:15:24;;;;;;;;;;;7.40;99.90;;;;;;5028825;28;19967;-77
2023/01/15 15:17:55;;;;;;;;;;;7.30;99.90;;;;;;5021488;28;19945;-74
2023/01/15 15:20:21;;;;;;;;;;;7.30;99.90;;;;;;5012776;28;20120;-76
2023/01/15 15:22:48;;;;;;;;;;;7.20;99.90;;;;;;5010600;28;19910;-73
2023/01/15 15:25:18;;;;;;;;;;;7.20;99.90;;;;;;5004161;28;19914;-75
2023/01/15 15:27:43;;;;;;;;;;;7.20;99.90;;;;;;5008271;28;19945;-75
2023/01/15 15:30:10;;;;;;;;;;;7.20;99.90;;;;;;5005156;28;20366;-73